sensor_id;sensor_type;location;lat;lon;timestamp;temperature;humidity
1536;DHT22;761;50.074;8.228;2022-10-31T00:01:30;11.30;1.00
1536;DHT22;761;50.074;8.228;2022-10-31T00:04:01;11.30;1.00
1536;DHT22;761;50.074;8.228;2022-10-31T00:06:29;11.20;1.00
1536;DHT22;761;50.074;8.228;2022-10-31T00:08:59;11.20;1.00
1536;DHT22;761;50.074;8.228;2022-10-31T00:11:29;11.20;1.00
1536;DHT22;761;50.074;8.228;2022-10-31T00:13:58;11.20;1.00
1536;DHT22;761;50.074;8.228;2022-10-31T00:16:27;11.10;1.00
1536;DHT22;761;50.074;8.228;2022-10-31T00:18:57;11.10;1.00
1536;DHT22;761;50.074;8.228;2022-10-31T00:21:27;11.00;1.00
1536;DHT22;761;50.074;8.228;2022-10-31T00:23:57;11.00;1.00
1536;DHT22;761;50.074;8.228;2022-10-31T00:26:29;11.00;1.00
1536;DHT22;761;50.074;8.228;2022-10-31T00:28:58;11.00;1.00
1536;DHT22;761;50.074;8.228;2022-10-31T00:31:27;11.10;1.00
1536;DHT22;761;50.074;8.228;2022-10-31T00:33:56;11.10;1.00
1536;DHT22;761;50.074;8.228;2022-10-31T00:36:28;11.10;1.00
1536;DHT22;761;50.074;8.228;2022-10-31T00:38:58;11.20;1.00
1536;DHT22;761;50.074;8.228;2022-10-31T00:41:26;11.20;1.00
1536;DHT22;761;50.074;8.228;2022-10-31T00:43:55;11.10;1.00
1536;DHT22;761;50.074;8.228;2022-10-31T00:46:23;11.20;1.00
1536;DHT22;761;50.074;8.228;2022-10-31T00:48:51;11.20;1.00
1536;DHT22;761;50.074;8.228;2022-10-31T00:51:20;11.30;1.00
1536;DHT22;761;50.074;8.228;2022-10-31T00:53:48;11.30;1.00
1536;DHT22;761;50.074;8.228;2022-10-31T00:56:17;11.20;1.00
1536;DHT22;761;50.074;8.228;2022-10-31T00:58:45;11.00;1.00
1536;DHT22;761;50.074;8.228;2022-10-31T01:01:14;11.10;1.00
1536;DHT22;761;50.074;8.228;2022-10-31T01:03:43;11.20;1.00
1536;DHT22;761;50.074;8.228;2022-10-31T01:06:13;11.30;1.00
1536;DHT22;761;50.074;8.228;2022-10-31T01:08:43;11.30;1.00
1536;DHT22;761;50.074;8.228;2022-10-31T01:11:16;11.30;1.00
1536;DHT22;761;50.074;8.228;2022-10-31T01:13:46;11.30;1.00
1536;DHT22;761;50.074;8.228;2022-10-31T01:16:17;11.30;1.00
1536;DHT22;761;50.074;8.228;2022-10-31T01:18:46;11.20;1.00
1536;DHT22;761;50.074;8.228;2022-10-31T01:21:16;11.20;1.00
1536;DHT22;761;50.074;8.228;2022-10-31T01:23:48;11.20;1.00
1536;DHT22;761;50.074;8.228;2022-10-31T01:26:18;11.20;1.00
1536;DHT22;761;50.074;8.228;2022-10-31T01:28:49;11.30;1.00
1536;DHT22;761;50.074;8.228;2022-10-31T01:31:21;11.30;1.00
1536;DHT22;761;50.074;8.228;2022-10-31T01:33:50;11.40;1.00
1536;DHT22;761;50.074;8.228;2022-10-31T01:36:20;11.30;1.00
1536;DHT22;761;50.074;8.228;2022-10-31T01:38:53;11.30;1.00
1536;DHT22;761;50.074;8.228;2022-10-31T01:41:24;11.30;1.00
1536;DHT22;761;50.074;8.228;2022-10-31T01:43:54;11.20;1.00
1536;DHT22;761;50.074;8.228;2022-10-31T01:46:27;11.20;1.00
1536;DHT22;761;50.074;8.228;2022-10-31T01:48:59;11.20;1.00
1536;DHT22;761;50.074;8.228;2022-10-31T01:51:30;11.20;1.00
1536;DHT22;761;50.074;8.228;2022-10-31T01:54:01;11.20;1.00
1536;DHT22;761;50.074;8.228;2022-10-31T01:56:35;11.10;1.00
1536;DHT22;761;50.074;8.228;2022-10-31T01:59:10;11.00;1.00
1536;DHT22;761;50.074;8.228;2022-10-31T02:01:53;10.90;1.00
1536;DHT22;761;50.074;8.228;2022-10-31T02:04:23;10.90;1.00
1536;DHT22;761;50.074;8.228;2022-10-31T02:06:55;10.90;1.00
1536;DHT22;761;50.074;8.228;2022-10-31T02:09:25;11.00;1.00
1536;DHT22;761;50.074;8.228;2022-10-31T02:11:57;11.20;1.00
1536;DHT22;761;50.074;8.228;2022-10-31T02:14:30;11.40;1.00
1536;DHT22;761;50.074;8.228;2022-10-31T02:17:00;11.50;1.00
1536;DHT22;761;50.074;8.228;2022-10-31T02:19:34;11.30;1.00
1536;DHT22;761;50.074;8.228;2022-10-31T02:22:09;11.10;1.00
1536;DHT22;761;50.074;8.228;2022-10-31T02:24:45;11.00;1.00
1536;DHT22;761;50.074;8.228;2022-10-31T02:27:34;11.00;1.00
1536;DHT22;761;50.074;8.228;2022-10-31T02:30:11;11.10;1.00
1536;DHT22;761;50.074;8.228;2022-10-31T02:33:00;11.10;1.00
1536;DHT22;761;50.074;8.228;2022-10-31T02:35:44;11.20;1.00
1536;DHT22;761;50.074;8.228;2022-10-31T02:38:29;11.10;1.00
1536;DHT22;761;50.074;8.228;2022-10-31T02:41:13;11.20;1.00
1536;DHT22;761;50.074;8.228;2022-10-31T02:43:57;11.10;1.00
1536;DHT22;761;50.074;8.228;2022-10-31T02:46:32;11.10;1.00
1536;DHT22;761;50.074;8.228;2022-10-31T02:49:09;11.10;1.00
1536;DHT22;761;50.074;8.228;2022-10-31T02:51:39;11.10;1.00
1536;DHT22;761;50.074;8.228;2022-10-31T02:54:18;11.10;1.00
1536;DHT22;761;50.074;8.228;2022-10-31T02:56:51;11.00;1.00
1536;DHT22;761;50.074;8.228;2022-10-31T02:59:22;10.90;1.00
1536;DHT22;761;50.074;8.228;2022-10-31T03:02:06;10.90;1.00
1536;DHT22;761;50.074;8.228;2022-10-31T03:04:53;10.90;1.00
1536;DHT22;761;50.074;8.228;2022-10-31T03:07:30;10.80;1.00
1536;DHT22;761;50.074;8.228;2022-10-31T03:10:05;10.80;1.00
1536;DHT22;761;50.074;8.228;2022-10-31T03:12:47;10.80;1.00
1536;DHT22;761;50.074;8.228;2022-10-31T03:15:21;10.70;1.00
1536;DHT22;761;50.074;8.228;2022-10-31T03:17:55;10.80;1.00
1536;DHT22;761;50.074;8.228;2022-10-31T03:20:33;10.80;1.00
1536;DHT22;761;50.074;8.228;2022-10-31T03:23:10;10.90;1.00
1536;DHT22;761;50.074;8.228;2022-10-31T03:25:39;10.90;1.00
1536;DHT22;761;50.074;8.228;2022-10-31T03:28:10;10.90;1.00
1536;DHT22;761;50.074;8.228;2022-10-31T03:30:44;11.00;1.00
1536;DHT22;761;50.074;8.228;2022-10-31T03:33:20;11.00;1.00
1536;DHT22;761;50.074;8.228;2022-10-31T03:35:52;11.00;1.00
1536;DHT22;761;50.074;8.228;2022-10-31T03:38:21;11.10;1.00
1536;DHT22;761;50.074;8.228;2022-10-31T03:40:53;11.10;1.00
1536;DHT22;761;50.074;8.228;2022-10-31T03:43:26;11.10;1.00
1536;DHT22;761;50.074;8.228;2022-10-31T03:45:55;11.10;1.00
1536;DHT22;761;50.074;8.228;2022-10-31T03:48:24;11.00;1.00
1536;DHT22;761;50.074;8.228;2022-10-31T03:50:58;10.90;1.00
1536;DHT22;761;50.074;8.228;2022-10-31T03:53:33;10.80;1.00
1536;DHT22;761;50.074;8.228;2022-10-31T03:56:09;10.80;1.00
1536;DHT22;761;50.074;8.228;2022-10-31T03:58:42;10.80;1.00
1536;DHT22;761;50.074;8.228;2022-10-31T04:01:15;10.80;1.00
1536;DHT22;761;50.074;8.228;2022-10-31T04:03:45;11.10;1.00
1536;DHT22;761;50.074;8.228;2022-10-31T04:06:18;10.70;1.00
1536;DHT22;761;50.074;8.228;2022-10-31T04:08:51;10.70;1.00
1536;DHT22;761;50.074;8.228;2022-10-31T04:11:26;10.70;1.00
1536;DHT22;761;50.074;8.228;2022-10-31T04:14:16;10.70;1.00
1536;DHT22;761;50.074;8.228;2022-10-31T04:19:21;10.70;1.00
1536;DHT22;761;50.074;8.228;2022-10-31T04:24:20;10.70;1.00
1536;DHT22;761;50.074;8.228;2022-10-31T04:26:48;10.60;1.00
1536;DHT22;761;50.074;8.228;2022-10-31T04:29:18;10.70;1.00
1536;DHT22;761;50.074;8.228;2022-10-31T04:34:17;10.60;1.00
1536;DHT22;761;50.074;8.228;2022-10-31T04:36:49;10.70;1.00
1536;DHT22;761;50.074;8.228;2022-10-31T04:39:19;10.60;1.00
1536;DHT22;761;50.074;8.228;2022-10-31T04:42:11;10.60;1.00
1536;DHT22;761;50.074;8.228;2022-10-31T04:44:39;10.70;1.00
1536;DHT22;761;50.074;8.228;2022-10-31T04:49:36;11.30;1.00
1536;DHT22;761;50.074;8.228;2022-10-31T04:52:04;11.30;1.00
1536;DHT22;761;50.074;8.228;2022-10-31T04:54:35;11.20;1.00
1536;DHT22;761;50.074;8.228;2022-10-31T04:57:06;10.90;1.00
1536;DHT22;761;50.074;8.228;2022-10-31T04:59:36;10.70;1.00
1536;DHT22;761;50.074;8.228;2022-10-31T05:02:04;10.70;1.00
1536;DHT22;761;50.074;8.228;2022-10-31T05:04:44;10.60;1.00
1536;DHT22;761;50.074;8.228;2022-10-31T05:07:12;10.60;1.00
1536;DHT22;761;50.074;8.228;2022-10-31T05:09:43;10.50;1.00
1536;DHT22;761;50.074;8.228;2022-10-31T05:12:13;10.50;1.00
1536;DHT22;761;50.074;8.228;2022-10-31T05:14:59;10.50;1.00
1536;DHT22;761;50.074;8.228;2022-10-31T05:17:46;10.50;1.00
1536;DHT22;761;50.074;8.228;2022-10-31T05:20:37;10.50;1.00
1536;DHT22;761;50.074;8.228;2022-10-31T05:23:22;10.40;1.00
1536;DHT22;761;50.074;8.228;2022-10-31T05:25:51;10.40;1.00
1536;DHT22;761;50.074;8.228;2022-10-31T05:28:20;10.30;1.00
1536;DHT22;761;50.074;8.228;2022-10-31T05:30:49;10.30;1.00
1536;DHT22;761;50.074;8.228;2022-10-31T05:36:06;10.30;1.00
1536;DHT22;761;50.074;8.228;2022-10-31T05:38:54;10.40;1.00
1536;DHT22;761;50.074;8.228;2022-10-31T05:41:27;10.40;1.00
1536;DHT22;761;50.074;8.228;2022-10-31T05:44:04;10.50;1.00
1536;DHT22;761;50.074;8.228;2022-10-31T05:46:43;10.40;1.00
1536;DHT22;761;50.074;8.228;2022-10-31T05:49:43;10.50;1.00
1536;DHT22;761;50.074;8.228;2022-10-31T05:52:31;10.50;1.00
1536;DHT22;761;50.074;8.228;2022-10-31T05:55:08;10.60;1.00
1536;DHT22;761;50.074;8.228;2022-10-31T05:57:41;10.60;1.00
1536;DHT22;761;50.074;8.228;2022-10-31T06:00:10;10.60;1.00
1536;DHT22;761;50.074;8.228;2022-10-31T06:02:47;10.50;1.00
1536;DHT22;761;50.074;8.228;2022-10-31T06:05:17;10.50;1.00
1536;DHT22;761;50.074;8.228;2022-10-31T06:07:45;10.70;1.00
1536;DHT22;761;50.074;8.228;2022-10-31T06:10:14;10.60;1.00
1536;DHT22;761;50.074;8.228;2022-10-31T06:12:46;10.60;1.00
1536;DHT22;761;50.074;8.228;2022-10-31T06:15:21;10.60;1.00
1536;DHT22;761;50.074;8.228;2022-10-31T06:17:59;10.60;1.00
1536;DHT22;761;50.074;8.228;2022-10-31T06:20:33;10.60;1.00
1536;DHT22;761;50.074;8.228;2022-10-31T06:23:03;10.50;1.00
1536;DHT22;761;50.074;8.228;2022-10-31T06:25:34;10.60;1.00
1536;DHT22;761;50.074;8.228;2022-10-31T06:28:07;10.40;1.00
1536;DHT22;761;50.074;8.228;2022-10-31T06:30:51;10.40;1.00
1536;DHT22;761;50.074;8.228;2022-10-31T06:33:19;10.50;1.00
1536;DHT22;761;50.074;8.228;2022-10-31T06:35:55;10.50;1.00
1536;DHT22;761;50.074;8.228;2022-10-31T06:38:25;10.60;1.00
1536;DHT22;761;50.074;8.228;2022-10-31T06:40:54;10.60;1.00
1536;DHT22;761;50.074;8.228;2022-10-31T06:43:27;10.60;1.00
1536;DHT22;761;50.074;8.228;2022-10-31T06:46:18;10.60;1.00
1536;DHT22;761;50.074;8.228;2022-10-31T06:48:59;10.60;1.00
1536;DHT22;761;50.074;8.228;2022-10-31T06:51:47;10.70;1.00
1536;DHT22;761;50.074;8.228;2022-10-31T06:54:17;10.80;1.00
1536;DHT22;761;50.074;8.228;2022-10-31T06:56:46;10.90;1.00
1536;DHT22;761;50.074;8.228;2022-10-31T06:59:16;11.00;1.00
1536;DHT22;761;50.074;8.228;2022-10-31T07:02:08;11.00;1.00
1536;DHT22;761;50.074;8.228;2022-10-31T07:07:11;11.20;1.00
1536;DHT22;761;50.074;8.228;2022-10-31T07:09:40;11.30;1.00
1536;DHT22;761;50.074;8.228;2022-10-31T07:12:10;11.30;1.00
1536;DHT22;761;50.074;8.228;2022-10-31T07:14:46;11.40;1.00
1536;DHT22;761;50.074;8.228;2022-10-31T07:17:15;11.50;1.00
1536;DHT22;761;50.074;8.228;2022-10-31T07:19:44;11.70;1.00
1536;DHT22;761;50.074;8.228;2022-10-31T07:22:16;11.70;1.00
1536;DHT22;761;50.074;8.228;2022-10-31T07:24:44;11.90;1.00
1536;DHT22;761;50.074;8.228;2022-10-31T07:27:36;12.00;1.00
1536;DHT22;761;50.074;8.228;2022-10-31T07:30:12;12.00;1.00
1536;DHT22;761;50.074;8.228;2022-10-31T07:32:42;12.20;1.00
1536;DHT22;761;50.074;8.228;2022-10-31T07:35:18;12.10;1.00
1536;DHT22;761;50.074;8.228;2022-10-31T07:37:51;12.20;1.00
1536;DHT22;761;50.074;8.228;2022-10-31T07:40:21;12.40;1.00
1536;DHT22;761;50.074;8.228;2022-10-31T07:42:52;12.40;1.00
1536;DHT22;761;50.074;8.228;2022-10-31T07:45:54;12.50;1.00
1536;DHT22;761;50.074;8.228;2022-10-31T07:51:31;12.60;1.00
1536;DHT22;761;50.074;8.228;2022-10-31T07:54:02;12.70;1.00
1536;DHT22;761;50.074;8.228;2022-10-31T07:56:31;12.90;1.00
1536;DHT22;761;50.074;8.228;2022-10-31T07:58:59;13.20;1.00
1536;DHT22;761;50.074;8.228;2022-10-31T08:01:31;13.10;1.00
1536;DHT22;761;50.074;8.228;2022-10-31T08:04:19;13.20;1.00
1536;DHT22;761;50.074;8.228;2022-10-31T08:07:10;13.30;1.00
1536;DHT22;761;50.074;8.228;2022-10-31T08:09:43;13.70;1.00
1536;DHT22;761;50.074;8.228;2022-10-31T08:12:19;13.70;1.00
1536;DHT22;761;50.074;8.228;2022-10-31T08:14:48;13.90;1.00
1536;DHT22;761;50.074;8.228;2022-10-31T08:19:57;14.30;1.00
1536;DHT22;761;50.074;8.228;2022-10-31T08:22:31;14.40;1.00
1536;DHT22;761;50.074;8.228;2022-10-31T08:27:33;14.70;1.00
1536;DHT22;761;50.074;8.228;2022-10-31T08:32:34;14.90;1.00
1536;DHT22;761;50.074;8.228;2022-10-31T08:35:20;15.00;1.00
1536;DHT22;761;50.074;8.228;2022-10-31T08:38:08;13.30;1.00
1536;DHT22;761;50.074;8.228;2022-10-31T08:40:38;15.10;1.00
1536;DHT22;761;50.074;8.228;2022-10-31T08:43:08;15.10;1.00
1536;DHT22;761;50.074;8.228;2022-10-31T08:45:38;15.20;1.00
1536;DHT22;761;50.074;8.228;2022-10-31T08:48:16;15.20;1.00
1536;DHT22;761;50.074;8.228;2022-10-31T08:50:45;15.20;1.00
1536;DHT22;761;50.074;8.228;2022-10-31T08:53:15;15.30;1.00
1536;DHT22;761;50.074;8.228;2022-10-31T08:55:46;15.40;1.00
1536;DHT22;761;50.074;8.228;2022-10-31T08:58:24;15.40;1.00
1536;DHT22;761;50.074;8.228;2022-10-31T09:00:59;15.40;1.00
1536;DHT22;761;50.074;8.228;2022-10-31T09:03:30;15.50;1.00
1536;DHT22;761;50.074;8.228;2022-10-31T09:06:02;15.40;1.00
1536;DHT22;761;50.074;8.228;2022-10-31T09:08:33;15.40;1.00
1536;DHT22;761;50.074;8.228;2022-10-31T09:11:04;15.50;1.00
1536;DHT22;761;50.074;8.228;2022-10-31T09:13:53;15.60;1.00
1536;DHT22;761;50.074;8.228;2022-10-31T09:16:33;15.70;1.00
1536;DHT22;761;50.074;8.228;2022-10-31T09:19:03;15.60;1.00
1536;DHT22;761;50.074;8.228;2022-10-31T09:21:37;15.70;1.00
1536;DHT22;761;50.074;8.228;2022-10-31T09:24:06;15.70;1.00
1536;DHT22;761;50.074;8.228;2022-10-31T09:29:18;15.30;1.00
1536;DHT22;761;50.074;8.228;2022-10-31T09:31:56;15.20;1.00
1536;DHT22;761;50.074;8.228;2022-10-31T09:34:30;15.10;1.00
1536;DHT22;761;50.074;8.228;2022-10-31T09:37:04;15.20;1.00
1536;DHT22;761;50.074;8.228;2022-10-31T09:39:34;15.40;1.00
1536;DHT22;761;50.074;8.228;2022-10-31T09:42:34;15.40;1.00
1536;DHT22;761;50.074;8.228;2022-10-31T09:45:18;15.30;1.00
1536;DHT22;761;50.074;8.228;2022-10-31T09:47:57;15.20;1.00
1536;DHT22;761;50.074;8.228;2022-10-31T09:50:38;15.30;1.00
1536;DHT22;761;50.074;8.228;2022-10-31T09:53:51;15.30;1.00
1536;DHT22;761;50.074;8.228;2022-10-31T09:56:23;15.30;1.00
1536;DHT22;761;50.074;8.228;2022-10-31T09:58:58;15.50;1.00
1536;DHT22;761;50.074;8.228;2022-10-31T10:01:35;15.70;1.00
1536;DHT22;761;50.074;8.228;2022-10-31T10:04:28;15.80;1.00
1536;DHT22;761;50.074;8.228;2022-10-31T10:07:15;15.90;1.00
1536;DHT22;761;50.074;8.228;2022-10-31T10:12:42;16.10;1.00
1536;DHT22;761;50.074;8.228;2022-10-31T10:15:35;16.10;1.00
1536;DHT22;761;50.074;8.228;2022-10-31T10:18:12;15.90;1.00
1536;DHT22;761;50.074;8.228;2022-10-31T10:20:48;15.90;1.00
1536;DHT22;761;50.074;8.228;2022-10-31T10:23:34;16.00;1.00
1536;DHT22;761;50.074;8.228;2022-10-31T10:26:15;16.10;1.00
1536;DHT22;761;50.074;8.228;2022-10-31T10:28:48;16.10;1.00
1536;DHT22;761;50.074;8.228;2022-10-31T10:31:23;16.20;1.00
1536;DHT22;761;50.074;8.228;2022-10-31T10:34:01;16.10;1.00
1536;DHT22;761;50.074;8.228;2022-10-31T10:36:37;16.10;1.00
1536;DHT22;761;50.074;8.228;2022-10-31T10:39:15;16.20;1.00
1536;DHT22;761;50.074;8.228;2022-10-31T10:41:48;16.30;1.00
1536;DHT22;761;50.074;8.228;2022-10-31T10:44:31;16.40;1.00
1536;DHT22;761;50.074;8.228;2022-10-31T10:47:20;16.50;1.00
1536;DHT22;761;50.074;8.228;2022-10-31T10:50:10;16.40;1.00
1536;DHT22;761;50.074;8.228;2022-10-31T10:52:49;16.50;1.00
1536;DHT22;761;50.074;8.228;2022-10-31T10:55:30;16.60;1.00
1536;DHT22;761;50.074;8.228;2022-10-31T10:58:03;16.70;1.00
1536;DHT22;761;50.074;8.228;2022-10-31T11:00:40;16.70;1.00
1536;DHT22;761;50.074;8.228;2022-10-31T11:03:11;16.80;1.00
1536;DHT22;761;50.074;8.228;2022-10-31T11:05:44;16.80;1.00
1536;DHT22;761;50.074;8.228;2022-10-31T11:08:23;16.90;1.00
1536;DHT22;761;50.074;8.228;2022-10-31T11:11:01;17.10;1.00
1536;DHT22;761;50.074;8.228;2022-10-31T11:13:31;17.10;1.00
1536;DHT22;761;50.074;8.228;2022-10-31T11:16:02;17.20;1.00
1536;DHT22;761;50.074;8.228;2022-10-31T11:18:36;17.20;1.00
1536;DHT22;761;50.074;8.228;2022-10-31T11:21:05;17.30;1.00
1536;DHT22;761;50.074;8.228;2022-10-31T11:23:34;17.30;1.00
1536;DHT22;761;50.074;8.228;2022-10-31T11:26:06;17.30;1.00
1536;DHT22;761;50.074;8.228;2022-10-31T11:28:56;17.40;1.00
1536;DHT22;761;50.074;8.228;2022-10-31T11:31:24;17.50;1.00
1536;DHT22;761;50.074;8.228;2022-10-31T11:34:00;17.60;1.00
1536;DHT22;761;50.074;8.228;2022-10-31T11:36:30;17.70;1.00
1536;DHT22;761;50.074;8.228;2022-10-31T11:39:00;17.60;1.00
1536;DHT22;761;50.074;8.228;2022-10-31T11:41:31;17.60;1.00
1536;DHT22;761;50.074;8.228;2022-10-31T11:44:02;17.50;1.00
1536;DHT22;761;50.074;8.228;2022-10-31T11:46:34;17.50;1.00
1536;DHT22;761;50.074;8.228;2022-10-31T11:49:05;17.40;1.00
1536;DHT22;761;50.074;8.228;2022-10-31T11:51:40;17.60;1.00
1536;DHT22;761;50.074;8.228;2022-10-31T11:54:19;17.60;1.00
1536;DHT22;761;50.074;8.228;2022-10-31T11:56:50;17.50;1.00
1536;DHT22;761;50.074;8.228;2022-10-31T11:59:24;17.60;1.00
1536;DHT22;761;50.074;8.228;2022-10-31T12:01:54;17.80;1.00
1536;DHT22;761;50.074;8.228;2022-10-31T12:04:38;17.90;1.00
1536;DHT22;761;50.074;8.228;2022-10-31T12:07:10;17.80;1.00
1536;DHT22;761;50.074;8.228;2022-10-31T12:09:39;17.80;1.00
1536;DHT22;761;50.074;8.228;2022-10-31T12:12:25;17.80;1.00
1536;DHT22;761;50.074;8.228;2022-10-31T12:15:16;18.10;1.00
1536;DHT22;761;50.074;8.228;2022-10-31T12:17:52;18.20;1.00
1536;DHT22;761;50.074;8.228;2022-10-31T12:20:26;18.10;1.00
1536;DHT22;761;50.074;8.228;2022-10-31T12:23:02;18.00;1.00
1536;DHT22;761;50.074;8.228;2022-10-31T12:25:39;18.40;1.00
1536;DHT22;761;50.074;8.228;2022-10-31T12:28:39;18.00;1.00
1536;DHT22;761;50.074;8.228;2022-10-31T12:31:24;18.00;1.00
1536;DHT22;761;50.074;8.228;2022-10-31T12:34:02;18.00;1.00
1536;DHT22;761;50.074;8.228;2022-10-31T12:36:46;18.30;1.00
1536;DHT22;761;50.074;8.228;2022-10-31T12:39:33;18.20;1.00
1536;DHT22;761;50.074;8.228;2022-10-31T12:42:17;18.30;1.00
1536;DHT22;761;50.074;8.228;2022-10-31T12:45:00;18.40;1.00
1536;DHT22;761;50.074;8.228;2022-10-31T12:47:46;18.40;1.00
1536;DHT22;761;50.074;8.228;2022-10-31T12:50:28;18.70;1.00
1536;DHT22;761;50.074;8.228;2022-10-31T12:53:13;18.80;1.00
1536;DHT22;761;50.074;8.228;2022-10-31T12:55:55;18.80;1.00
1536;DHT22;761;50.074;8.228;2022-10-31T12:58:32;18.50;1.00
1536;DHT22;761;50.074;8.228;2022-10-31T13:01:12;18.40;1.00
1536;DHT22;761;50.074;8.228;2022-10-31T13:03:48;18.40;1.00
1536;DHT22;761;50.074;8.228;2022-10-31T13:06:24;18.50;1.00
1536;DHT22;761;50.074;8.228;2022-10-31T13:08:59;18.40;1.00
1536;DHT22;761;50.074;8.228;2022-10-31T13:11:32;18.50;1.00
1536;DHT22;761;50.074;8.228;2022-10-31T13:14:06;18.40;1.00
1536;DHT22;761;50.074;8.228;2022-10-31T13:16:42;18.50;1.00
1536;DHT22;761;50.074;8.228;2022-10-31T13:19:16;18.40;1.00
1536;DHT22;761;50.074;8.228;2022-10-31T13:21:57;18.50;1.00
1536;DHT22;761;50.074;8.228;2022-10-31T13:24:32;18.30;1.00
1536;DHT22;761;50.074;8.228;2022-10-31T13:27:07;18.40;1.00
1536;DHT22;761;50.074;8.228;2022-10-31T13:29:41;18.20;1.00
1536;DHT22;761;50.074;8.228;2022-10-31T13:32:13;18.30;1.00
1536;DHT22;761;50.074;8.228;2022-10-31T13:34:47;18.20;1.00
1536;DHT22;761;50.074;8.228;2022-10-31T13:37:26;18.20;1.00
1536;DHT22;761;50.074;8.228;2022-10-31T13:40:12;18.20;1.00
1536;DHT22;761;50.074;8.228;2022-10-31T13:42:53;18.20;1.00
1536;DHT22;761;50.074;8.228;2022-10-31T13:45:26;18.20;1.00
1536;DHT22;761;50.074;8.228;2022-10-31T13:48:01;18.20;1.00
1536;DHT22;761;50.074;8.228;2022-10-31T13:50:35;18.10;1.00
1536;DHT22;761;50.074;8.228;2022-10-31T13:53:10;18.10;1.00
1536;DHT22;761;50.074;8.228;2022-10-31T13:55:43;18.10;1.00
1536;DHT22;761;50.074;8.228;2022-10-31T13:58:24;18.30;1.00
1536;DHT22;761;50.074;8.228;2022-10-31T14:01:15;18.20;1.00
1536;DHT22;761;50.074;8.228;2022-10-31T14:04:04;18.20;1.00
1536;DHT22;761;50.074;8.228;2022-10-31T14:06:57;18.10;1.00
1536;DHT22;761;50.074;8.228;2022-10-31T14:09:33;18.00;1.00
1536;DHT22;761;50.074;8.228;2022-10-31T14:12:06;17.90;1.00
1536;DHT22;761;50.074;8.228;2022-10-31T14:14:45;17.90;1.00
1536;DHT22;761;50.074;8.228;2022-10-31T14:17:20;17.90;1.00
1536;DHT22;761;50.074;8.228;2022-10-31T14:20:32;18.00;1.00
1536;DHT22;761;50.074;8.228;2022-10-31T14:23:29;17.90;1.00
1536;DHT22;761;50.074;8.228;2022-10-31T14:26:17;17.90;1.00
1536;DHT22;761;50.074;8.228;2022-10-31T14:28:51;17.90;1.00
1536;DHT22;761;50.074;8.228;2022-10-31T14:31:36;18.00;1.00
1536;DHT22;761;50.074;8.228;2022-10-31T14:34:23;18.00;1.00
1536;DHT22;761;50.074;8.228;2022-10-31T14:37:12;18.10;1.00
1536;DHT22;761;50.074;8.228;2022-10-31T14:39:51;18.50;1.00
1536;DHT22;761;50.074;8.228;2022-10-31T14:42:36;18.70;1.00
1536;DHT22;761;50.074;8.228;2022-10-31T14:45:21;18.70;1.00
1536;DHT22;761;50.074;8.228;2022-10-31T14:48:03;18.90;1.00
1536;DHT22;761;50.074;8.228;2022-10-31T14:50:47;18.90;1.00
1536;DHT22;761;50.074;8.228;2022-10-31T14:53:22;18.80;1.00
1536;DHT22;761;50.074;8.228;2022-10-31T14:55:53;18.50;1.00
1536;DHT22;761;50.074;8.228;2022-10-31T14:58:28;18.10;1.00
1536;DHT22;761;50.074;8.228;2022-10-31T15:01:07;18.20;1.00
1536;DHT22;761;50.074;8.228;2022-10-31T15:03:40;18.10;1.00
1536;DHT22;761;50.074;8.228;2022-10-31T15:06:40;18.10;1.00
1536;DHT22;761;50.074;8.228;2022-10-31T15:09:23;18.00;1.00
1536;DHT22;761;50.074;8.228;2022-10-31T15:11:54;18.00;1.00
1536;DHT22;761;50.074;8.228;2022-10-31T15:14:25;17.90;1.00
1536;DHT22;761;50.074;8.228;2022-10-31T15:16:56;17.80;1.00
1536;DHT22;761;50.074;8.228;2022-10-31T15:19:27;17.80;1.00
1536;DHT22;761;50.074;8.228;2022-10-31T15:22:02;17.80;1.00
1536;DHT22;761;50.074;8.228;2022-10-31T15:24:35;17.80;1.00
1536;DHT22;761;50.074;8.228;2022-10-31T15:27:09;17.80;1.00
1536;DHT22;761;50.074;8.228;2022-10-31T15:29:53;17.70;1.00
1536;DHT22;761;50.074;8.228;2022-10-31T15:32:27;17.70;1.00
1536;DHT22;761;50.074;8.228;2022-10-31T15:34:56;17.70;1.00
1536;DHT22;761;50.074;8.228;2022-10-31T15:37:26;17.60;1.00
1536;DHT22;761;50.074;8.228;2022-10-31T15:40:06;17.60;1.00
1536;DHT22;761;50.074;8.228;2022-10-31T15:42:40;17.60;1.00
1536;DHT22;761;50.074;8.228;2022-10-31T15:45:18;17.60;1.00
1536;DHT22;761;50.074;8.228;2022-10-31T15:47:54;17.50;1.00
1536;DHT22;761;50.074;8.228;2022-10-31T15:50:28;17.50;1.00
1536;DHT22;761;50.074;8.228;2022-10-31T15:52:58;17.50;1.00
1536;DHT22;761;50.074;8.228;2022-10-31T15:55:38;17.40;1.00
1536;DHT22;761;50.074;8.228;2022-10-31T15:58:16;17.40;1.00
1536;DHT22;761;50.074;8.228;2022-10-31T16:00:57;17.30;1.00
1536;DHT22;761;50.074;8.228;2022-10-31T16:03:29;17.30;1.00
1536;DHT22;761;50.074;8.228;2022-10-31T16:06:00;17.30;1.00
1536;DHT22;761;50.074;8.228;2022-10-31T16:08:33;17.20;1.00
1536;DHT22;761;50.074;8.228;2022-10-31T16:11:23;17.10;1.00
1536;DHT22;761;50.074;8.228;2022-10-31T16:13:57;17.10;1.00
1536;DHT22;761;50.074;8.228;2022-10-31T16:16:26;17.00;1.00
1536;DHT22;761;50.074;8.228;2022-10-31T16:19:03;17.00;1.00
1536;DHT22;761;50.074;8.228;2022-10-31T16:21:35;16.90;1.00
1536;DHT22;761;50.074;8.228;2022-10-31T16:24:15;16.90;1.00
1536;DHT22;761;50.074;8.228;2022-10-31T16:26:51;16.70;1.00
1536;DHT22;761;50.074;8.228;2022-10-31T16:29:26;16.60;1.00
1536;DHT22;761;50.074;8.228;2022-10-31T16:31:56;16.60;1.00
1536;DHT22;761;50.074;8.228;2022-10-31T16:34:25;16.30;1.00
1536;DHT22;761;50.074;8.228;2022-10-31T16:36:56;16.20;1.00
1536;DHT22;761;50.074;8.228;2022-10-31T16:41:57;16.00;1.00
1536;DHT22;761;50.074;8.228;2022-10-31T16:44:27;16.00;1.00
1536;DHT22;761;50.074;8.228;2022-10-31T16:47:12;15.70;1.00
1536;DHT22;761;50.074;8.228;2022-10-31T16:49:43;15.60;1.00
1536;DHT22;761;50.074;8.228;2022-10-31T16:52:12;15.60;1.00
1536;DHT22;761;50.074;8.228;2022-10-31T16:54:43;15.70;1.00
1536;DHT22;761;50.074;8.228;2022-10-31T16:57:17;15.80;1.00
1536;DHT22;761;50.074;8.228;2022-10-31T16:59:51;15.90;1.00
1536;DHT22;761;50.074;8.228;2022-10-31T17:02:21;15.90;1.00
1536;DHT22;761;50.074;8.228;2022-10-31T17:12:28;15.50;1.00
1536;DHT22;761;50.074;8.228;2022-10-31T17:17:27;15.80;1.00
1536;DHT22;761;50.074;8.228;2022-10-31T17:19:58;15.70;1.00
1536;DHT22;761;50.074;8.228;2022-10-31T17:22:27;15.90;1.00
1536;DHT22;761;50.074;8.228;2022-10-31T17:24:58;15.40;1.00
1536;DHT22;761;50.074;8.228;2022-10-31T17:27:29;15.20;1.00
1536;DHT22;761;50.074;8.228;2022-10-31T17:30:15;15.10;1.00
1536;DHT22;761;50.074;8.228;2022-10-31T17:32:46;15.10;1.00
1536;DHT22;761;50.074;8.228;2022-10-31T17:37:48;15.10;1.00
1536;DHT22;761;50.074;8.228;2022-10-31T17:40:18;15.10;1.00
1536;DHT22;761;50.074;8.228;2022-10-31T17:42:50;15.10;1.00
1536;DHT22;761;50.074;8.228;2022-10-31T18:00:50;14.60;1.00
1536;DHT22;761;50.074;8.228;2022-10-31T18:08:35;14.60;1.00
1536;DHT22;761;50.074;8.228;2022-10-31T18:11:09;14.50;1.00
1536;DHT22;761;50.074;8.228;2022-10-31T18:16:14;14.00;1.00
1536;DHT22;761;50.074;8.228;2022-10-31T18:18:43;14.00;1.00
1536;DHT22;761;50.074;8.228;2022-10-31T18:23:42;13.90;1.00
1536;DHT22;761;50.074;8.228;2022-10-31T18:26:14;14.00;1.00
1536;DHT22;761;50.074;8.228;2022-10-31T18:28:52;13.90;1.00
1536;DHT22;761;50.074;8.228;2022-10-31T18:31:23;14.00;1.00
1536;DHT22;761;50.074;8.228;2022-10-31T18:46:48;13.50;1.00
1536;DHT22;761;50.074;8.228;2022-10-31T18:49:19;13.40;1.00
1536;DHT22;761;50.074;8.228;2022-10-31T18:51:50;13.50;1.00
1536;DHT22;761;50.074;8.228;2022-10-31T18:59:16;13.40;1.00